createdAt,value
2019-03-10T00:00:11.510Z,1.90
2019-03-10T00:02:40.274Z,2.53
2019-03-10T00:05:09.010Z,2.63
2019-03-10T00:07:37.721Z,2.93
2019-03-10T00:10:07.024Z,2.30
2019-03-10T00:12:35.717Z,2.37
2019-03-10T00:15:04.498Z,2.73
2019-03-10T00:17:33.131Z,1.90
2019-03-10T00:20:01.822Z,3.27
2019-03-10T00:22:30.553Z,2.53
2019-03-10T00:24:59.237Z,3.10
2019-03-10T00:27:27.925Z,6.00
2019-03-10T00:29:56.608Z,2.53
2019-03-10T00:32:25.271Z,2.27
2019-03-10T00:34:53.944Z,2.13
2019-03-10T00:37:22.625Z,2.00
2019-03-10T00:39:59.412Z,2.50
2019-03-10T00:42:39.662Z,4.10
2019-03-10T00:45:26.204Z,2.17
2019-03-10T00:48:13.993Z,3.40
2019-03-10T00:50:51.483Z,2.47
2019-03-10T00:53:20.141Z,4.67
2019-03-10T00:55:48.834Z,3.97
2019-03-10T00:58:17.495Z,4.30
2019-03-10T01:00:46.237Z,2.70
2019-03-10T01:03:14.912Z,4.40
2019-03-10T01:05:43.543Z,2.53
2019-03-10T01:08:12.314Z,2.53
2019-03-10T01:10:41.052Z,2.80
2019-03-10T01:13:09.862Z,3.50
2019-03-10T01:15:39.236Z,2.90
2019-03-10T01:18:08.535Z,2.90
2019-03-10T01:20:37.430Z,3.70
2019-03-10T01:23:06.122Z,3.80
2019-03-10T01:25:34.776Z,2.20
2019-03-10T01:28:03.500Z,4.83
2019-03-10T01:30:38.333Z,3.53
2019-03-10T01:33:25.250Z,2.83
2019-03-10T01:35:54.013Z,3.67
2019-03-10T01:38:22.682Z,4.00
2019-03-10T01:40:51.366Z,2.73
2019-03-10T01:43:20.341Z,2.03
2019-03-10T01:45:49.076Z,2.33
2019-03-10T01:48:17.768Z,2.17
2019-03-10T01:50:46.469Z,2.50
2019-03-10T01:53:25.038Z,3.23
2019-03-10T01:55:45.542Z,2.47
2019-03-10T01:58:14.230Z,4.40
2019-03-10T02:00:42.922Z,2.70
2019-03-10T02:03:11.562Z,3.17
2019-03-10T02:05:40.146Z,1.93
2019-03-10T02:08:08.850Z,1.70
2019-03-10T02:10:37.521Z,2.67
2019-03-10T02:13:06.228Z,2.40
2019-03-10T02:15:34.978Z,3.00
2019-03-10T02:18:03.664Z,1.97
2019-03-10T02:20:32.364Z,2.50
2019-03-10T02:23:01.102Z,2.77
2019-03-10T02:25:29.780Z,2.33
2019-03-10T02:27:58.454Z,3.73
2019-03-10T02:30:27.165Z,2.63
2019-03-10T02:32:55.834Z,1.83
2019-03-10T02:35:24.579Z,4.53
2019-03-10T02:37:53.134Z,2.90
2019-03-10T02:40:21.825Z,4.23
2019-03-10T02:42:50.404Z,2.23
2019-03-10T02:45:19.042Z,2.00
2019-03-10T02:47:47.687Z,2.17
2019-03-10T02:50:16.343Z,1.70
2019-03-10T02:52:45.144Z,2.33
2019-03-10T02:55:13.840Z,2.37
2019-03-10T02:57:42.546Z,1.53
2019-03-10T03:00:11.500Z,4.10
2019-03-10T03:02:40.169Z,2.73
2019-03-10T03:05:09.262Z,2.30
2019-03-10T03:07:37.938Z,2.10
2019-03-10T03:10:07.536Z,2.80
2019-03-10T03:12:36.297Z,3.27
2019-03-10T03:15:05.233Z,3.97
2019-03-10T03:17:33.913Z,2.30
2019-03-10T03:20:02.617Z,2.13
2019-03-10T03:22:31.291Z,2.40
2019-03-10T03:24:59.991Z,4.03
2019-03-10T03:27:28.539Z,4.70
2019-03-10T03:29:57.162Z,2.97
2019-03-10T03:32:25.900Z,3.50
2019-03-10T03:34:54.587Z,2.43
2019-03-10T03:37:23.580Z,5.00
2019-03-10T03:39:52.991Z,1.60
2019-03-10T03:42:21.650Z,1.23
2019-03-10T03:44:50.376Z,1.97
2019-03-10T03:47:19.018Z,1.73
2019-03-10T03:49:47.689Z,2.27
2019-03-10T03:52:16.402Z,1.97
2019-03-10T03:54:45.105Z,1.80
2019-03-10T03:57:13.829Z,1.33
2019-03-10T03:59:42.498Z,1.70
2019-03-10T04:02:28.561Z,2.60
2019-03-10T04:04:57.239Z,3.70
2019-03-10T04:07:25.896Z,1.30
2019-03-10T04:09:54.585Z,1.90
2019-03-10T04:12:23.238Z,1.33
2019-03-10T04:14:52.025Z,1.73
2019-03-10T04:17:20.803Z,1.70
2019-03-10T04:19:49.485Z,1.97
2019-03-10T04:22:18.139Z,0.97
2019-03-10T04:24:46.857Z,1.97
2019-03-10T04:27:15.564Z,1.90
2019-03-10T04:29:44.332Z,2.17
2019-03-10T04:32:12.961Z,1.47
2019-03-10T04:34:41.622Z,1.70
2019-03-10T04:37:10.304Z,1.70
2019-03-10T04:39:38.966Z,1.10
2019-03-10T04:42:07.644Z,1.40
2019-03-10T04:44:36.490Z,1.87
2019-03-10T04:47:05.174Z,1.60
2019-03-10T04:49:33.827Z,1.90
2019-03-10T04:52:02.507Z,1.80
2019-03-10T04:54:48.573Z,1.20
2019-03-10T04:57:19.106Z,1.20
2019-03-10T04:59:47.679Z,1.50
2019-03-10T05:02:16.367Z,1.73
2019-03-10T05:04:45.068Z,1.13
2019-03-10T05:07:13.742Z,1.00
2019-03-10T05:09:42.431Z,1.97
2019-03-10T05:12:11.120Z,1.57
2019-03-10T05:14:39.779Z,0.80
2019-03-10T05:17:08.428Z,0.73
2019-03-10T05:19:37.098Z,2.50
2019-03-10T05:22:05.780Z,0.80
2019-03-10T05:24:34.412Z,1.80
2019-03-10T05:27:03.054Z,0.80
2019-03-10T05:29:31.684Z,0.80
2019-03-10T05:32:00.317Z,0.67
2019-03-10T05:34:29.034Z,1.37
2019-03-10T05:36:57.733Z,0.70
2019-03-10T05:39:26.405Z,0.90
2019-03-10T05:41:54.987Z,0.80
2019-03-10T05:44:23.650Z,1.83
2019-03-10T05:46:52.362Z,1.53
2019-03-10T05:49:21.066Z,1.33
2019-03-10T05:51:49.631Z,0.90
2019-03-10T05:54:18.319Z,1.47
2019-03-10T05:56:47.648Z,2.40
2019-03-10T05:59:16.292Z,2.83
2019-03-10T06:01:44.984Z,1.23
2019-03-10T06:04:13.650Z,1.93
2019-03-10T06:06:42.291Z,1.20
2019-03-10T06:09:10.960Z,1.00
2019-03-10T06:11:39.553Z,1.53
2019-03-10T06:14:08.267Z,0.87
2019-03-10T06:16:36.925Z,1.17
2019-03-10T06:19:05.591Z,0.80
2019-03-10T06:21:34.309Z,0.90
2019-03-10T06:24:02.948Z,3.23
2019-03-10T06:26:31.612Z,1.43
2019-03-10T06:29:00.277Z,0.80
2019-03-10T06:31:28.961Z,2.07
2019-03-10T06:33:57.690Z,1.10
2019-03-10T06:36:26.430Z,2.93
2019-03-10T06:38:55.356Z,1.33
2019-03-10T06:41:23.953Z,1.13
2019-03-10T06:43:52.607Z,1.00
2019-03-10T06:46:21.327Z,1.43
2019-03-10T06:48:49.975Z,0.93
2019-03-10T06:51:18.640Z,0.60
2019-03-10T06:53:47.323Z,1.67
2019-03-10T06:56:15.980Z,2.80
2019-03-10T06:58:44.649Z,1.27
2019-03-10T07:01:13.245Z,3.03
2019-03-10T07:03:41.800Z,2.53
2019-03-10T07:06:10.476Z,1.30
2019-03-10T07:08:39.224Z,2.30
2019-03-10T07:11:07.912Z,1.30
2019-03-10T07:13:36.674Z,1.47
2019-03-10T07:16:05.564Z,1.83
2019-03-10T07:18:34.236Z,2.57
2019-03-10T07:21:02.848Z,2.03
2019-03-10T07:23:31.508Z,1.90
2019-03-10T07:26:06.698Z,2.57
2019-03-10T07:29:00.766Z,2.00
2019-03-10T07:31:40.190Z,1.87
2019-03-10T07:34:35.652Z,1.43
2019-03-10T07:37:25.771Z,2.23
2019-03-10T07:40:10.109Z,4.73
2019-03-10T07:42:47.243Z,2.40
2019-03-10T07:45:38.092Z,2.00
2019-03-10T07:48:24.509Z,1.90
2019-03-10T07:51:24.127Z,2.10
2019-03-10T07:54:10.452Z,1.40
2019-03-10T07:56:58.201Z,1.20
2019-03-10T07:59:44.076Z,1.23
2019-03-10T08:02:47.009Z,1.87
2019-03-10T08:05:24.750Z,2.17
2019-03-10T08:08:24.469Z,1.90
2019-03-10T08:11:10.986Z,1.40
2019-03-10T08:13:54.815Z,1.53
2019-03-10T08:16:45.352Z,2.03
2019-03-10T08:19:25.540Z,2.47
2019-03-10T08:22:11.743Z,6.67
2019-03-10T08:24:53.178Z,1.50
2019-03-10T08:27:38.646Z,2.07
2019-03-10T08:30:26.154Z,2.27
2019-03-10T08:33:12.536Z,1.70
2019-03-10T08:36:06.392Z,1.67
2019-03-10T08:39:09.245Z,2.30
2019-03-10T08:41:50.833Z,4.77
2019-03-10T08:44:38.610Z,2.70
2019-03-10T08:47:17.314Z,3.60
2019-03-10T08:49:57.464Z,1.70
2019-03-10T08:52:32.991Z,3.73
2019-03-10T08:55:06.504Z,5.57
2019-03-10T08:57:57.038Z,5.30
2019-03-10T09:00:50.577Z,3.23
2019-03-10T09:03:37.041Z,9.13
2019-03-10T09:06:34.021Z,15.23
2019-03-10T09:09:11.640Z,3.07
2019-03-10T09:11:57.966Z,4.60
2019-03-10T09:14:39.282Z,5.13
2019-03-10T09:17:13.309Z,2.63
2019-03-10T09:19:56.128Z,3.70
2019-03-10T09:22:42.540Z,2.53
2019-03-10T09:25:30.274Z,2.50
2019-03-10T09:28:18.026Z,2.53
2019-03-10T09:31:02.517Z,2.00
2019-03-10T09:34:05.566Z,2.43
2019-03-10T09:36:53.248Z,1.90
2019-03-10T09:39:30.392Z,2.80
2019-03-10T09:42:33.053Z,4.67
2019-03-10T09:45:23.927Z,2.47
2019-03-10T09:48:14.504Z,2.33
2019-03-10T09:51:05.442Z,2.30
2019-03-10T09:53:42.223Z,2.67
2019-03-10T09:56:28.635Z,1.77
2019-03-10T09:59:08.896Z,2.07
2019-03-10T10:02:05.527Z,2.13
2019-03-10T10:04:43.154Z,3.47
2019-03-10T10:07:29.532Z,2.20
2019-03-10T10:10:20.074Z,0.80
2019-03-10T10:12:58.456Z,0.67
2019-03-10T10:15:44.640Z,0.40
2019-03-10T10:18:27.652Z,0.53
2019-03-10T10:21:15.350Z,0.87
2019-03-10T10:23:53.969Z,0.90
2019-03-10T10:26:31.022Z,1.30
2019-03-10T10:29:09.553Z,0.77
2019-03-10T10:32:00.333Z,0.57
2019-03-10T10:35:05.919Z,0.70
2019-03-10T10:37:56.438Z,0.87
2019-03-10T10:40:56.053Z,1.27
2019-03-10T10:43:42.213Z,1.37
2019-03-10T10:46:32.921Z,0.50
2019-03-10T10:49:32.803Z,0.50
2019-03-10T10:52:29.809Z,0.50
2019-03-10T10:55:32.479Z,0.50
2019-03-10T10:58:11.805Z,1.53
2019-03-10T11:00:59.747Z,0.60
2019-03-10T11:03:47.477Z,1.27
2019-03-10T11:06:33.174Z,2.93
2019-03-10T11:09:10.875Z,0.40
2019-03-10T11:12:03.103Z,1.10
2019-03-10T11:15:02.913Z,1.20
2019-03-10T11:18:08.850Z,0.50
2019-03-10T11:20:56.330Z,0.33
2019-03-10T11:23:45.391Z,0.53
2019-03-10T11:26:28.695Z,0.70
2019-03-10T11:29:07.477Z,1.03
2019-03-10T11:31:40.875Z,0.50
2019-03-10T11:34:19.355Z,0.40
2019-03-10T11:36:59.391Z,0.40
2019-03-10T11:39:56.691Z,2.20
2019-03-10T11:42:43.113Z,0.80
2019-03-10T11:45:29.430Z,1.80
2019-03-10T11:48:05.095Z,0.50
2019-03-10T11:50:46.518Z,0.67
2019-03-10T11:53:34.330Z,2.13
2019-03-10T11:56:25.094Z,0.60
2019-03-10T11:59:08.291Z,0.40
2019-03-10T12:02:02.017Z,1.40
2019-03-10T12:04:39.340Z,1.53
2019-03-10T12:07:32.928Z,1.93
2019-03-10T12:10:01.599Z,0.67
2019-03-10T12:12:30.275Z,0.77
2019-03-10T12:14:58.951Z,2.37
2019-03-10T12:17:29.305Z,0.60
2019-03-10T12:19:58.068Z,0.70
2019-03-10T12:22:26.733Z,0.67
2019-03-10T12:24:55.451Z,2.03
2019-03-10T12:27:27.292Z,2.87
2019-03-10T12:29:56.357Z,0.80
2019-03-10T12:32:25.072Z,1.10
2019-03-10T12:34:53.833Z,0.60
2019-03-10T12:37:22.598Z,0.77
2019-03-10T12:39:51.330Z,0.60
2019-03-10T12:42:20.072Z,0.50
2019-03-10T12:44:48.805Z,0.80
2019-03-10T12:47:17.515Z,0.70
2019-03-10T12:49:46.226Z,0.57
2019-03-10T12:52:14.953Z,0.50
2019-03-10T12:54:43.673Z,0.40
2019-03-10T12:57:12.477Z,0.50
2019-03-10T12:59:41.182Z,0.50
2019-03-10T13:02:09.873Z,0.87
2019-03-10T13:04:38.573Z,1.13
2019-03-10T13:07:07.261Z,0.67
2019-03-10T13:09:36.035Z,0.50
2019-03-10T13:12:04.694Z,0.67
2019-03-10T13:14:33.371Z,1.20
2019-03-10T13:17:02.112Z,2.10
2019-03-10T13:19:30.790Z,1.23
2019-03-10T13:21:59.506Z,0.60
2019-03-10T13:24:28.279Z,1.07
2019-03-10T13:26:57.032Z,0.50
2019-03-10T13:29:25.770Z,0.60
2019-03-10T13:31:54.490Z,0.43
2019-03-10T13:34:23.291Z,0.60
2019-03-10T13:36:51.970Z,0.50
2019-03-10T13:39:20.760Z,1.37
2019-03-10T13:41:49.512Z,1.13
2019-03-10T13:44:18.245Z,0.63
2019-03-10T13:46:46.941Z,0.83
2019-03-10T13:49:16.504Z,1.17
2019-03-10T13:51:45.216Z,0.73
2019-03-10T13:54:13.991Z,0.73
2019-03-10T13:56:42.757Z,0.67
2019-03-10T13:59:11.518Z,0.47
2019-03-10T14:01:40.247Z,2.20
2019-03-10T14:04:08.983Z,0.83
2019-03-10T14:06:37.688Z,0.70
2019-03-10T14:09:07.599Z,0.60
2019-03-10T14:11:36.337Z,0.83
2019-03-10T14:14:05.231Z,0.87
2019-03-10T14:16:33.934Z,0.43
2019-03-10T14:19:02.654Z,0.60
2019-03-10T14:21:32.341Z,0.70
2019-03-10T14:24:01.390Z,0.50
2019-03-10T14:26:31.854Z,0.60
2019-03-10T14:29:00.591Z,0.50
2019-03-10T14:31:29.237Z,0.40
2019-03-10T14:33:57.953Z,0.40
2019-03-10T14:36:26.673Z,0.40
2019-03-10T14:38:55.411Z,0.60
2019-03-10T14:41:24.150Z,0.60
2019-03-10T14:43:52.920Z,0.47
2019-03-10T14:46:21.610Z,0.50
2019-03-10T14:48:50.374Z,0.70
2019-03-10T14:51:19.169Z,0.77
2019-03-10T14:53:47.886Z,1.10
2019-03-10T14:56:16.572Z,0.60
2019-03-10T14:58:45.188Z,1.77
2019-03-10T15:01:13.921Z,0.63
2019-03-10T15:03:42.656Z,1.33
2019-03-10T15:06:11.394Z,0.37
2019-03-10T15:08:40.165Z,0.50
2019-03-10T15:11:08.947Z,0.57
2019-03-10T15:13:37.664Z,2.60
2019-03-10T15:16:09.479Z,0.50
2019-03-10T15:18:38.205Z,0.63
2019-03-10T15:21:09.045Z,0.70
2019-03-10T15:23:40.141Z,2.20
2019-03-10T15:26:08.117Z,2.27
2019-03-10T15:28:39.105Z,2.70
2019-03-10T15:31:09.223Z,1.37
2019-03-10T15:33:40.127Z,2.10
2019-03-10T15:36:20.181Z,0.73
2019-03-10T15:38:48.725Z,1.70
2019-03-10T15:41:17.573Z,2.83
2019-03-10T15:43:46.410Z,2.83
2019-03-10T15:46:15.180Z,2.13
2019-03-10T15:48:44.014Z,2.50
2019-03-10T15:51:13.007Z,2.07
2019-03-10T15:53:42.258Z,2.37
2019-03-10T15:56:11.106Z,0.93
2019-03-10T15:58:40.010Z,2.67
2019-03-10T16:01:09.093Z,1.87
2019-03-10T16:03:40.777Z,2.30
2019-03-10T16:06:11.869Z,2.77
2019-03-10T16:08:46.566Z,2.13
2019-03-10T16:22:39.119Z,3.07
2019-03-10T16:25:08.452Z,1.77
2019-03-10T16:27:37.286Z,1.97
2019-03-10T16:30:06.879Z,3.47
2019-03-10T16:32:36.806Z,2.93
2019-03-10T16:35:05.597Z,2.63
2019-03-10T16:37:34.431Z,2.40
2019-03-10T16:40:03.455Z,5.30
2019-03-10T16:42:32.378Z,2.47
2019-03-10T16:45:01.430Z,1.83
2019-03-10T16:47:30.249Z,1.23
2019-03-10T16:49:58.963Z,2.57
2019-03-10T16:52:27.807Z,1.73
2019-03-10T16:54:56.550Z,3.73
2019-03-10T16:57:25.166Z,1.53
2019-03-10T16:59:53.962Z,1.93
2019-03-10T17:02:22.746Z,2.30
2019-03-10T17:04:51.501Z,4.23
2019-03-10T17:07:20.240Z,4.83
2019-03-10T17:09:48.847Z,2.67
2019-03-10T17:12:17.589Z,5.13
2019-03-10T17:14:46.357Z,3.77
2019-03-10T17:17:15.082Z,4.20
2019-03-10T17:19:43.857Z,3.63
2019-03-10T17:22:12.540Z,3.07
2019-03-10T17:24:41.303Z,3.87
2019-03-10T17:27:09.934Z,4.70
2019-03-10T17:29:38.687Z,3.97
2019-03-10T17:32:07.392Z,4.30
2019-03-10T17:34:36.206Z,6.93
2019-03-10T17:37:04.967Z,3.27
2019-03-10T17:39:33.768Z,6.37
2019-03-10T17:42:02.508Z,6.10
2019-03-10T17:44:40.566Z,3.83
2019-03-10T17:47:01.673Z,5.63
2019-03-10T17:49:30.325Z,4.33
2019-03-10T17:51:59.062Z,6.03
2019-03-10T17:54:27.752Z,6.57
2019-03-10T17:56:56.571Z,5.17
2019-03-10T17:59:25.278Z,4.27
2019-03-10T18:01:54.922Z,6.60
2019-03-10T18:04:23.506Z,3.87
2019-03-10T18:06:52.285Z,4.37
2019-03-10T18:09:21.005Z,6.13
2019-03-10T18:11:49.656Z,6.30
2019-03-10T18:14:18.360Z,5.83
2019-03-10T18:16:47.225Z,7.73
2019-03-10T18:19:16.021Z,9.10
2019-03-10T18:21:44.788Z,7.10
2019-03-10T18:24:13.461Z,9.90
2019-03-10T18:26:42.180Z,10.27
2019-03-10T18:29:10.884Z,7.03
2019-03-10T18:31:39.611Z,6.33
2019-03-10T18:34:09.142Z,4.83
2019-03-10T18:36:38.081Z,6.03
2019-03-10T18:39:06.991Z,3.50
2019-03-10T18:41:35.891Z,9.80
2019-03-10T18:44:04.665Z,6.80
2019-03-10T18:46:33.406Z,5.50
2019-03-10T18:49:02.201Z,3.10
2019-03-10T18:51:30.987Z,11.20
2019-03-10T18:53:59.742Z,2.43
2019-03-10T18:56:28.467Z,6.47
2019-03-10T18:59:00.490Z,5.23
2019-03-10T19:01:29.185Z,6.50
2019-03-10T19:03:58.044Z,5.03
2019-03-10T19:06:26.965Z,5.20
2019-03-10T19:08:55.992Z,3.10
2019-03-10T19:11:24.709Z,3.70
2019-03-10T19:13:53.418Z,3.47
2019-03-10T19:16:22.618Z,5.93
2019-03-10T19:18:51.395Z,2.73
2019-03-10T19:21:20.200Z,5.97
2019-03-10T19:23:48.911Z,2.43
2019-03-10T19:26:17.762Z,4.03
2019-03-10T19:28:47.332Z,3.23
2019-03-10T19:31:16.034Z,7.33
2019-03-10T19:33:44.890Z,5.60
2019-03-10T19:36:13.590Z,5.43
2019-03-10T19:38:42.341Z,3.07
2019-03-10T19:41:11.037Z,6.77
2019-03-10T19:43:39.783Z,5.50
2019-03-10T19:46:08.478Z,12.47
2019-03-10T19:48:37.232Z,6.63
2019-03-10T19:51:06.010Z,9.13
2019-03-10T19:53:34.732Z,3.17
2019-03-10T19:56:04.145Z,8.87
2019-03-10T19:58:32.968Z,5.70
2019-03-10T20:01:01.768Z,7.47
2019-03-10T20:03:30.578Z,8.27
2019-03-10T20:05:59.440Z,3.73
2019-03-10T20:08:28.219Z,7.23
2019-03-10T20:10:56.981Z,4.83
2019-03-10T20:13:25.778Z,3.67
2019-03-10T20:15:54.717Z,2.33
2019-03-10T20:18:23.450Z,2.57
2019-03-10T20:20:52.717Z,3.13
2019-03-10T20:23:21.410Z,1.70
2019-03-10T20:25:50.113Z,7.70
2019-03-10T20:28:18.869Z,16.70
2019-03-10T20:30:47.643Z,2.07
2019-03-10T20:33:16.466Z,2.53
2019-03-10T20:35:45.285Z,2.10
2019-03-10T20:38:14.085Z,4.70
2019-03-10T20:40:42.837Z,4.77
2019-03-10T20:43:11.539Z,2.60
2019-03-10T20:45:40.239Z,3.10
2019-03-10T20:48:08.941Z,1.90
2019-03-10T20:50:37.648Z,2.47
2019-03-10T20:53:06.653Z,3.97
2019-03-10T20:55:35.424Z,3.50
2019-03-10T20:58:04.078Z,3.50
2019-03-10T21:00:32.820Z,3.20
2019-03-10T21:03:01.624Z,4.87
2019-03-10T21:05:30.455Z,3.67
2019-03-10T21:08:00.392Z,3.50
2019-03-10T21:13:18.101Z,2.13
2019-03-10T21:15:50.515Z,4.03
2019-03-10T21:18:19.268Z,4.80
2019-03-10T21:20:48.018Z,3.03
2019-03-10T21:23:16.944Z,3.33
2019-03-10T21:25:45.677Z,3.13
2019-03-10T21:28:14.579Z,2.17
2019-03-10T21:30:43.277Z,4.07
2019-03-10T21:33:12.045Z,2.67
2019-03-10T21:35:40.654Z,4.23
2019-03-10T21:38:09.395Z,4.00
2019-03-10T21:40:38.163Z,3.73
2019-03-10T21:43:06.967Z,2.87
2019-03-10T21:45:35.612Z,2.37
2019-03-10T21:48:04.640Z,6.57
2019-03-10T21:50:33.815Z,1.70
2019-03-10T21:53:02.967Z,3.27
2019-03-10T21:55:31.992Z,2.60
2019-03-10T21:58:00.950Z,4.90
2019-03-10T22:00:29.832Z,5.97
2019-03-10T22:02:58.631Z,5.03
2019-03-10T22:05:27.461Z,5.50
2019-03-10T22:07:56.336Z,4.67
2019-03-10T22:10:27.980Z,4.90
2019-03-10T22:12:55.855Z,5.57
2019-03-10T22:15:24.694Z,7.03
2019-03-10T22:17:53.524Z,8.03
2019-03-10T22:20:22.726Z,6.27
2019-03-10T22:22:51.523Z,4.57
2019-03-10T22:25:20.385Z,3.83
2019-03-10T22:27:49.230Z,3.70
2019-03-10T22:30:18.178Z,5.83
2019-03-10T22:32:47.014Z,2.97
2019-03-10T22:35:15.832Z,4.30
2019-03-10T22:37:45.167Z,1.93
2019-03-10T22:40:14.095Z,2.17
2019-03-10T22:42:43.221Z,3.03
2019-03-10T22:45:12.318Z,1.53
2019-03-10T22:47:41.130Z,1.40
2019-03-10T22:50:10.377Z,3.13
2019-03-10T22:52:39.311Z,1.53
2019-03-10T22:55:08.453Z,1.57
2019-03-10T22:57:39.426Z,1.17
2019-03-10T23:00:12.414Z,1.60
2019-03-10T23:02:41.618Z,2.53
2019-03-10T23:05:10.601Z,5.33
2019-03-10T23:07:39.547Z,4.40
2019-03-10T23:10:09.014Z,1.47
2019-03-10T23:12:38.099Z,1.27
2019-03-10T23:15:07.080Z,2.93
2019-03-10T23:17:36.072Z,3.10
2019-03-10T23:20:09.337Z,2.93
2019-03-10T23:22:38.037Z,5.60
2019-03-10T23:25:06.670Z,4.47
2019-03-10T23:27:45.326Z,6.33
2019-03-10T23:30:48.024Z,5.43
2019-03-10T23:33:16.929Z,10.23
2019-03-10T23:35:47.428Z,8.43
2019-03-10T23:38:16.310Z,5.97
2019-03-10T23:40:45.236Z,8.27
2019-03-10T23:43:17.042Z,5.37
2019-03-10T23:45:45.856Z,6.10
2019-03-10T23:48:16.674Z,8.53
2019-03-10T23:50:47.554Z,6.10
2019-03-10T23:53:16.365Z,4.13
2019-03-10T23:55:45.383Z,5.83
2019-03-10T23:58:14.415Z,6.57
